الصفحة الرئيسية
METAR-TAF:

METAR-TAF

مطار :

Kosrae, مايكرونيزيا

دائرة عرض: 05-21N, خط طول: 162-57E, ارتفاع: 3 متر

مراقبة الطقس الحالي

تاريخ ووقت الإصدار 1ساعة و 6 دقيقة قبل الساعة 14:50UTC
ريح 6 عقدة من الشرق/الجنوب الشرقي
درجة الحرارة 27°درجة مئوية
الرطوبة 84%
ضغط 1009 hPa
الرؤية: 16.1 كم
غيوم قليلة على ارتفاع 2100 قدم
غيوم مفككة على ارتفاع 13000 قدم
ملبد بالغيوم على ارتفاع 30000 قدم

METAR: PTSA 151450Z 11006KT 10SM FEW021 BKN130 OVC300 27/24 A2979

زمن: 02:56 (15:56 UTC)

توقعات

تاريخ ووقت الإصدار 27 دقيقة قبل الساعة 15:29UTC
التوقعات صالحة من15 الساعة 15 UTC إلى 16 الساعة 12 UTC
ريح 8 عقدة من الشرق/الجنوب الشرقي
الرؤية: 10 كم
غيوم قليلة على ارتفاع 2000 قدم
غيوم مفككة على ارتفاع 13000 قدم
زخات في الجوار

TAF: PTSA 151529Z 1515/1612 11008KT P6SM VCSH FEW020 BKN130

أرصاد الطقس والتوقعات من أكثر من 4000 مطار (تقارير الطقس للمطار METAR والتنبؤ بالطقس بالمطارTAF).

المحطات المتاحة هي النقط الصفراء والحمراء على الخريطة.

حرك المؤشر فوق النقطة لمعرفة اسم المحطة.

ثم انقر لمعرفة أرصاد وتوقعات الطقس.

لتغيير الخارطة: اضغط على الأزرار الخضراء مع رمز الصليب الأسود للتكبير. على الزر الأخضر مع شرطة للتصغير، أو على الأسهم الخضراء للخرائط المجاورة.


METAR-TAF: